Time;durP1;ratioP1;P1;durP2;ratioP2;P2;SDS_P1;SDS_P2;PMS_P1;PMS_P2;Temp;Humidity;BMP_temperature;BMP_pressure;BME280_temperature;BME280_humidity;BME280_pressure;Samples;Min_cycle;Max_cycle;Signal;HPM_P1;HPM_P2
2021/06/16 00:02:19;;;;;;;3.70;3.30;;;19.10;93.70;;;;;;4994759;28;20625;-62
2021/06/16 00:04:45;;;;;;;3.50;3.20;;;19.10;94.10;;;;;;4994797;28;20219;-63
2021/06/16 00:07:11;;;;;;;4.07;3.77;;;19.10;94.00;;;;;;4991405;28;20517;-62
2021/06/16 00:09:37;;;;;;;3.88;3.58;;;19.00;94.10;;;;;;4991080;28;20183;-62
2021/06/16 00:12:03;;;;;;;4.00;3.70;;;19.10;94.20;;;;;;4997445;28;20659;-63
2021/06/16 00:14:29;;;;;;;3.97;3.57;;;19.10;94.20;;;;;;4999304;28;20180;-64
2021/06/16 00:16:54;;;;;;;3.47;3.27;;;19.00;94.20;;;;;;4991656;28;20521;-63
2021/06/16 00:19:20;;;;;;;3.10;2.80;;;19.10;94.40;;;;;;4999887;28;21097;-63
2021/06/16 00:21:46;;;;;;;3.63;3.30;;;19.10;94.40;;;;;;4992992;28;20206;-63
2021/06/16 00:24:13;;;;;;;3.70;3.40;;;19.10;94.50;;;;;;4995579;28;20664;-62
2021/06/16 00:26:39;;;;;;;3.55;3.25;;;19.00;94.60;;;;;;4996932;28;21405;-63
2021/06/16 00:29:05;;;;;;;3.83;3.40;;;19.00;94.80;;;;;;4997917;28;20712;-63
2021/06/16 00:31:31;;;;;;;4.60;3.53;;;19.00;94.80;;;;;;4990448;28;20438;-62
2021/06/16 00:33:56;;;;;;;3.10;2.90;;;19.00;94.90;;;;;;4997731;28;20202;-63
2021/06/16 00:36:22;;;;;;;3.53;3.23;;;19.00;94.70;;;;;;4992012;28;20191;-62
2021/06/16 00:38:48;;;;;;;3.73;3.30;;;19.00;94.90;;;;;;4991700;28;20562;-63
2021/06/16 00:41:13;;;;;;;3.20;2.90;;;19.00;95.00;;;;;;4996780;28;20462;-62
2021/06/16 00:43:39;;;;;;;3.60;3.30;;;19.00;95.30;;;;;;5003678;28;20285;-62
2021/06/16 00:46:05;;;;;;;3.50;3.20;;;18.90;95.30;;;;;;5004521;28;20175;-63
2021/06/16 00:48:30;;;;;;;3.50;3.20;;;18.90;95.70;;;;;;4992458;28;20619;-63
2021/06/16 00:50:56;;;;;;;3.60;3.10;;;18.90;95.80;;;;;;5003618;28;20186;-63
2021/06/16 00:53:22;;;;;;;4.43;3.90;;;18.90;95.90;;;;;;4993951;28;20616;-63
2021/06/16 00:55:47;;;;;;;3.83;3.47;;;18.90;95.80;;;;;;5001090;28;20186;-63
2021/06/16 00:58:13;;;;;;;3.60;3.30;;;18.90;95.90;;;;;;4991958;28;20295;-63
2021/06/16 01:00:58;;;;;;;3.47;3.17;;;18.80;95.80;;;;;;4998345;28;20285;-63
2021/06/16 01:03:32;;;;;;;3.17;2.90;;;18.80;96.20;;;;;;4996789;28;20210;-63
2021/06/16 01:06:04;;;;;;;3.30;3.10;;;18.80;96.40;;;;;;5003471;28;20189;-63
2021/06/16 01:08:36;;;;;;;3.75;3.45;;;18.70;96.40;;;;;;5001397;28;20193;-63
2021/06/16 01:11:09;;;;;;;3.83;2.90;;;18.80;96.40;;;;;;4991772;28;20234;-63
2021/06/16 01:13:43;;;;;;;6.35;3.88;;;18.80;96.50;;;;;;4995041;28;20233;-63
2021/06/16 01:16:34;;;;;;;3.50;3.20;;;18.70;96.40;;;;;;5010444;28;20190;-62
2021/06/16 01:19:11;;;;;;;3.40;3.13;;;18.70;96.40;;;;;;4992355;28;20188;-63
2021/06/16 01:21:40;;;;;;;3.58;3.28;;;18.60;96.90;;;;;;4995154;28;20197;-63
2021/06/16 01:24:08;;;;;;;4.63;3.28;;;18.60;97.10;;;;;;4996678;28;20262;-63
2021/06/16 01:26:44;;;;;;;5.28;3.20;;;18.50;97.40;;;;;;4996097;28;20215;-63
2021/06/16 01:29:16;;;;;;;3.95;3.55;;;18.50;97.70;;;;;;4989759;28;20258;-63
2021/06/16 01:31:42;;;;;;;4.38;3.97;;;18.50;97.80;;;;;;4991588;28;20198;-63
2021/06/16 01:34:10;;;;;;;3.10;2.90;;;18.50;97.90;;;;;;4995614;28;20198;-62
2021/06/16 01:36:40;;;;;;;4.05;3.50;;;18.50;97.80;;;;;;4997049;28;20751;-62
2021/06/16 01:39:09;;;;;;;3.50;3.20;;;18.50;97.70;;;;;;4996183;28;20274;-63
2021/06/16 01:41:35;;;;;;;4.15;3.65;;;18.40;97.90;;;;;;4993792;28;20613;-62
2021/06/16 01:44:02;;;;;;;3.63;3.33;;;18.40;98.00;;;;;;4996940;28;20672;-63
2021/06/16 01:46:28;;;;;;;4.10;3.80;;;18.40;98.30;;;;;;5004706;28;20206;-63
2021/06/16 01:48:56;;;;;;;3.80;3.50;;;18.40;98.20;;;;;;4993515;28;20187;-63
2021/06/16 01:51:23;;;;;;;3.90;3.60;;;18.40;98.40;;;;;;4993345;28;20179;-65
2021/06/16 01:53:50;;;;;;;3.90;3.60;;;18.40;98.60;;;;;;5004826;28;20193;-64
2021/06/16 01:56:18;;;;;;;3.90;3.60;;;18.40;98.80;;;;;;4996973;28;20187;-64
2021/06/16 01:58:45;;;;;;;3.80;3.33;;;18.40;99.00;;;;;;4997096;28;20184;-63
2021/06/16 02:01:11;;;;;;;3.58;3.35;;;18.40;99.10;;;;;;4989503;28;20209;-64
2021/06/16 02:03:37;;;;;;;5.22;4.72;;;18.30;99.30;;;;;;5004532;28;20246;-64
2021/06/16 02:06:03;;;;;;;3.60;3.30;;;18.40;99.50;;;;;;4994175;28;20200;-64
2021/06/16 02:08:30;;;;;;;4.00;3.70;;;18.40;99.40;;;;;;4997431;28;20203;-64
2021/06/16 02:10:59;;;;;;;3.45;3.25;;;18.40;99.30;;;;;;5003118;28;20180;-64
2021/06/16 02:13:42;;;;;;;3.97;3.67;;;18.40;99.40;;;;;;4995825;28;20266;-64
2021/06/16 02:16:11;;;;;;;4.00;3.70;;;18.30;99.40;;;;;;5000991;28;20902;-64
2021/06/16 02:18:43;;;;;;;4.70;4.13;;;18.30;99.70;;;;;;4996816;28;20218;-64
2021/06/16 02:21:08;;;;;;;4.15;3.85;;;18.30;99.80;;;;;;4992873;28;20656;-64
2021/06/16 02:23:34;;;;;;;3.80;3.40;;;18.30;99.90;;;;;;4999599;28;20223;-64
2021/06/16 02:26:01;;;;;;;3.88;3.58;;;18.40;99.90;;;;;;5003492;28;20187;-66
2021/06/16 02:28:26;;;;;;;3.60;3.30;;;18.30;99.80;;;;;;4995985;28;20231;-66
2021/06/16 02:30:52;;;;;;;4.20;3.50;;;18.30;99.90;;;;;;5005446;28;20242;-63
2021/06/16 02:33:18;;;;;;;4.30;3.90;;;18.30;99.90;;;;;;4993880;28;20206;-64
2021/06/16 02:35:43;;;;;;;4.20;3.90;;;18.30;99.90;;;;;;4995855;28;20202;-64
2021/06/16 02:38:12;;;;;;;4.47;3.87;;;18.20;99.90;;;;;;5004548;28;20619;-64
2021/06/16 02:40:41;;;;;;;4.07;3.78;;;18.30;99.90;;;;;;4991304;28;20214;-64
2021/06/16 02:43:07;;;;;;;3.92;3.50;;;18.20;99.90;;;;;;4991130;28;20582;-66
2021/06/16 02:45:35;;;;;;;4.28;3.97;;;18.30;99.90;;;;;;5003549;28;20210;-66
2021/06/16 02:48:02;;;;;;;5.32;4.10;;;18.30;99.90;;;;;;4995723;28;20204;-65
2021/06/16 02:50:30;;;;;;;4.45;4.10;;;18.20;99.90;;;;;;4995682;28;20667;-64
2021/06/16 02:53:00;;;;;;;4.15;3.75;;;18.10;99.90;;;;;;4998693;28;20641;-64
2021/06/16 02:55:27;;;;;;;4.75;4.35;;;18.20;99.90;;;;;;4997864;28;20197;-66
2021/06/16 02:57:55;;;;;;;4.13;3.75;;;18.00;99.90;;;;;;5002442;28;20932;-64
2021/06/16 03:00:22;;;;;;;5.80;4.60;;;18.00;99.90;;;;;;5010116;28;20548;-65
2021/06/16 03:02:49;;;;;;;4.63;4.10;;;18.10;99.90;;;;;;5003298;28;20210;-65
2021/06/16 03:05:21;;;;;;;5.97;4.13;;;18.10;99.90;;;;;;4991847;28;20229;-63
2021/06/16 03:07:49;;;;;;;4.38;3.97;;;18.00;99.90;;;;;;5000886;28;20222;-63
2021/06/16 03:10:19;;;;;;;4.45;4.15;;;18.00;99.90;;;;;;4992419;28;20264;-62
2021/06/16 03:12:51;;;;;;;4.25;3.95;;;18.00;99.90;;;;;;5004746;28;20188;-63
2021/06/16 03:15:18;;;;;;;4.18;3.78;;;18.00;99.90;;;;;;4993624;28;20187;-62
2021/06/16 03:17:46;;;;;;;4.95;4.45;;;18.00;99.90;;;;;;4998014;28;20221;-62
2021/06/16 03:20:16;;;;;;;4.90;4.40;;;18.00;99.90;;;;;;4997869;28;20187;-62
2021/06/16 03:22:43;;;;;;;4.53;4.13;;;17.90;99.90;;;;;;4997433;28;20622;-63
2021/06/16 03:25:10;;;;;;;4.65;4.25;;;17.90;99.90;;;;;;4997842;28;20716;-63
2021/06/16 03:27:38;;;;;;;4.50;4.10;;;17.90;99.90;;;;;;4993129;28;20211;-63
2021/06/16 03:30:04;;;;;;;5.28;4.80;;;17.80;99.90;;;;;;5004441;28;20176;-63
2021/06/16 03:32:32;;;;;;;4.60;4.20;;;17.90;99.90;;;;;;4992298;28;20199;-63
2021/06/16 03:38:20;;;;;;;7.10;4.40;;;18.00;99.90;;;;;;4991766;28;21076;-63
2021/06/16 03:40:48;;;;;;;5.10;4.70;;;18.20;99.90;;;;;;4991651;28;20195;-63
2021/06/16 03:43:15;;;;;;;5.90;4.28;;;17.90;99.90;;;;;;4991464;28;20254;-63
2021/06/16 03:45:43;;;;;;;5.82;4.30;;;17.90;99.90;;;;;;5008087;28;20565;-63
2021/06/16 03:48:10;;;;;;;7.22;6.60;;;18.00;99.90;;;;;;5004590;28;20195;-62
2021/06/16 03:50:38;;;;;;;5.45;4.95;;;17.80;99.90;;;;;;4991552;28;20172;-62
2021/06/16 03:53:07;;;;;;;5.13;4.72;;;17.90;99.90;;;;;;4991198;28;20208;-62
2021/06/16 03:55:33;;;;;;;6.07;4.68;;;17.90;99.90;;;;;;4997891;28;20179;-62
2021/06/16 03:57:59;;;;;;;6.30;5.20;;;18.00;99.90;;;;;;4990972;28;20861;-62
2021/06/16 04:00:25;;;;;;;6.18;4.90;;;18.00;99.90;;;;;;4991111;28;20430;-62
2021/06/16 04:02:51;;;;;;;6.90;4.77;;;18.00;99.90;;;;;;4992328;28;20730;-62
2021/06/16 04:05:17;;;;;;;4.90;4.50;;;18.10;99.90;;;;;;4995402;28;20449;-62
2021/06/16 04:07:48;;;;;;;5.10;4.40;;;18.00;99.90;;;;;;4990752;28;20545;-62
2021/06/16 04:10:14;;;;;;;5.82;5.32;;;18.00;99.90;;;;;;4991332;28;20175;-62
2021/06/16 04:12:40;;;;;;;5.00;4.25;;;18.10;99.90;;;;;;4992932;28;20334;-62
2021/06/16 04:15:06;;;;;;;5.67;5.13;;;18.00;99.90;;;;;;4998817;28;20664;-62
2021/06/16 04:17:31;;;;;;;5.03;4.53;;;18.00;99.90;;;;;;4998258;28;20208;-62
2021/06/16 04:19:57;;;;;;;5.00;4.60;;;18.10;99.90;;;;;;5001218;28;20825;-63
2021/06/16 04:22:23;;;;;;;5.90;5.20;;;18.00;99.90;;;;;;4988113;28;20191;-62
2021/06/16 04:24:49;;;;;;;6.40;4.82;;;18.00;99.90;;;;;;4997653;28;20180;-62
2021/06/16 04:27:15;;;;;;;7.37;5.00;;;18.10;99.90;;;;;;4986824;28;20230;-62
2021/06/16 04:29:41;;;;;;;10.43;5.40;;;18.10;99.90;;;;;;4998778;28;20226;-62
2021/06/16 04:32:11;;;;;;;4.90;4.30;;;18.10;99.90;;;;;;4988081;28;20215;-63
2021/06/16 04:35:32;;;;;;;5.70;5.20;;;18.20;99.90;;;;;;4986296;28;20183;-62
2021/06/16 04:37:58;;;;;;;4.78;4.25;;;18.30;99.90;;;;;;4984348;28;20230;-62
2021/06/16 04:40:24;;;;;;;6.03;5.00;;;18.40;99.90;;;;;;4982784;28;20330;-63
2021/06/16 04:42:49;;;;;;;6.03;5.20;;;18.50;99.90;;;;;;4986985;28;20207;-62
2021/06/16 04:45:15;;;;;;;5.50;5.00;;;18.60;99.90;;;;;;4986376;28;20176;-62
2021/06/16 04:47:41;;;;;;;7.03;5.17;;;18.70;99.90;;;;;;4989927;28;20203;-62
2021/06/16 04:50:10;;;;;;;5.20;4.50;;;18.90;99.90;;;;;;4989080;28;20481;-62
2021/06/16 04:52:35;;;;;;;7.07;5.15;;;19.00;99.90;;;;;;4990403;28;20194;-62
2021/06/16 04:55:01;;;;;;;4.87;4.37;;;19.00;99.90;;;;;;4990149;28;20567;-62
2021/06/16 04:57:27;;;;;;;5.73;5.13;;;19.10;99.90;;;;;;4988708;28;20235;-62
2021/06/16 04:59:52;;;;;;;6.00;5.20;;;19.30;99.90;;;;;;4989088;28;20762;-62
2021/06/16 05:02:18;;;;;;;6.80;5.03;;;19.50;99.90;;;;;;4985797;28;20219;-62
2021/06/16 05:04:43;;;;;;;8.13;5.27;;;19.40;99.90;;;;;;4987634;28;20183;-62
2021/06/16 05:07:09;;;;;;;6.70;4.93;;;19.60;99.90;;;;;;5000727;28;20199;-62
2021/06/16 05:09:35;;;;;;;5.70;4.70;;;19.60;99.90;;;;;;4991308;28;20649;-62
2021/06/16 05:12:00;;;;;;;6.80;5.60;;;19.80;99.90;;;;;;4994961;28;20210;-62
2021/06/16 05:14:26;;;;;;;5.77;5.17;;;19.80;99.90;;;;;;4996327;28;20209;-62
2021/06/16 05:17:37;;;;;;;5.60;5.10;;;20.00;99.90;;;;;;4998292;28;20290;-50
2021/06/16 05:20:03;;;;;;;11.52;6.80;;;20.10;99.90;;;;;;4987969;28;20374;-50
2021/06/16 05:22:29;;;;;;;6.10;5.28;;;20.20;99.90;;;;;;4987868;28;20223;-50
2021/06/16 05:24:55;;;;;;;7.97;4.80;;;20.30;99.90;;;;;;4988895;28;20199;-50
2021/06/16 05:27:21;;;;;;;5.80;5.22;;;20.40;99.90;;;;;;4992001;28;20235;-50
2021/06/16 05:33:09;;;;;;;5.90;5.30;;;20.60;99.90;;;;;;4986403;28;20733;-50
2021/06/16 05:35:34;;;;;;;6.50;5.80;;;20.60;99.80;;;;;;4988706;28;20270;-50
2021/06/16 05:38:00;;;;;;;6.07;5.57;;;20.70;99.60;;;;;;4989285;28;20195;-51
2021/06/16 05:40:26;;;;;;;7.70;4.97;;;20.80;99.60;;;;;;4988094;28;20183;-51
2021/06/16 05:42:52;;;;;;;6.13;5.53;;;20.90;99.30;;;;;;4988799;28;20471;-57
2021/06/16 05:45:18;;;;;;;6.07;5.33;;;21.10;98.40;;;;;;4986614;28;20190;-59
2021/06/16 05:47:44;;;;;;;5.75;5.03;;;21.10;98.00;;;;;;4988387;28;20199;-59
2021/06/16 05:50:11;;;;;;;5.80;5.17;;;21.20;97.90;;;;;;4988717;28;20191;-59
2021/06/16 05:52:36;;;;;;;7.90;5.17;;;21.30;98.10;;;;;;4988992;28;20191;-58
2021/06/16 05:55:03;;;;;;;6.40;5.80;;;21.30;97.80;;;;;;4986187;28;20434;-56
2021/06/16 05:57:29;;;;;;;5.60;5.10;;;21.40;97.40;;;;;;4987403;28;20219;-59
2021/06/16 05:59:55;;;;;;;7.33;6.43;;;21.50;97.20;;;;;;4987348;28;20191;-58
2021/06/16 06:02:20;;;;;;;5.47;5.07;;;21.70;97.00;;;;;;4988276;28;20191;-59
2021/06/16 06:04:46;;;;;;;6.67;5.67;;;22.00;96.70;;;;;;4990713;28;20218;-59
2021/06/16 06:07:12;;;;;;;6.03;5.33;;;22.10;95.80;;;;;;4988381;28;20209;-59
2021/06/16 06:09:37;;;;;;;5.83;5.10;;;22.20;95.20;;;;;;4999031;28;20215;-59
2021/06/16 06:12:03;;;;;;;5.93;5.00;;;22.30;94.60;;;;;;5004734;28;20184;-60
2021/06/16 06:14:29;;;;;;;5.00;4.50;;;22.60;94.70;;;;;;4983489;28;20668;-59
2021/06/16 06:16:54;;;;;;;4.80;4.40;;;22.60;93.10;;;;;;4989717;28;20266;-59
2021/06/16 06:19:20;;;;;;;5.03;4.60;;;22.70;92.90;;;;;;4997611;28;20202;-59
2021/06/16 06:21:46;;;;;;;5.07;4.57;;;23.00;93.10;;;;;;4997350;28;20179;-60
2021/06/16 06:24:11;;;;;;;5.27;4.77;;;23.10;92.90;;;;;;5004714;28;20210;-57
2021/06/16 06:26:37;;;;;;;6.97;5.10;;;23.40;92.70;;;;;;4991449;28;20200;-58
2021/06/16 06:29:03;;;;;;;7.80;7.10;;;23.30;91.50;;;;;;4993249;28;20652;-57
2021/06/16 06:31:30;;;;;;;5.00;4.60;;;23.50;91.40;;;;;;4993935;28;20533;-59
2021/06/16 06:33:56;;;;;;;5.10;4.60;;;23.60;91.10;;;;;;4991071;28;20481;-59
2021/06/16 06:36:22;;;;;;;7.60;5.10;;;23.80;90.80;;;;;;4981486;28;20964;-59
2021/06/16 06:38:48;;;;;;;4.80;4.40;;;23.90;90.40;;;;;;4989270;28;20191;-59
2021/06/16 06:41:15;;;;;;;6.03;4.93;;;24.00;90.00;;;;;;4994705;28;20447;-59
2021/06/16 06:43:41;;;;;;;5.60;4.97;;;24.10;90.10;;;;;;4998315;28;20512;-59
2021/06/16 06:46:07;;;;;;;7.30;4.63;;;24.40;89.50;;;;;;4987729;28;20964;-58
2021/06/16 06:48:33;;;;;;;5.83;4.80;;;24.80;87.80;;;;;;4985340;28;20185;-59
2021/06/16 06:50:59;;;;;;;6.83;5.70;;;25.10;86.40;;;;;;4985909;28;20188;-58
2021/06/16 06:53:27;;;;;;;4.67;3.93;;;25.40;85.60;;;;;;4987867;28;20531;-58
2021/06/16 06:55:53;;;;;;;6.07;4.73;;;25.70;83.50;;;;;;4990629;28;20570;-59
2021/06/16 06:58:19;;;;;;;4.77;4.37;;;25.90;81.80;;;;;;5000679;28;20549;-59
2021/06/16 07:00:44;;;;;;;5.03;4.10;;;25.60;81.50;;;;;;4995189;28;20284;-59
2021/06/16 07:03:10;;;;;;;5.50;4.20;;;26.30;80.80;;;;;;5004745;28;20687;-59
2021/06/16 07:05:36;;;;;;;8.73;4.20;;;27.30;78.40;;;;;;4988118;28;20723;-58
2021/06/16 07:08:01;;;;;;;5.17;3.87;;;28.40;73.90;;;;;;4990995;28;20210;-59
2021/06/16 07:10:27;;;;;;;5.50;5.00;;;30.80;66.90;;;;;;4989915;28;20552;-59
2021/06/16 07:12:53;;;;;;;5.83;4.90;;;33.00;59.30;;;;;;4998073;28;20203;-60
2021/06/16 07:15:19;;;;;;;4.53;4.13;;;34.90;54.40;;;;;;4991021;28;20221;-59
2021/06/16 07:17:45;;;;;;;8.90;4.80;;;36.40;49.60;;;;;;5005436;28;20266;-60
2021/06/16 07:20:11;;;;;;;4.07;3.70;;;37.20;45.00;;;;;;4989685;28;20865;-60
2021/06/16 07:22:37;;;;;;;3.80;3.33;;;37.70;43.30;;;;;;4994039;28;20288;-60
2021/06/16 07:25:04;;;;;;;4.27;3.97;;;36.40;43.60;;;;;;4986549;28;20462;-60
2021/06/16 07:27:30;;;;;;;3.90;3.60;;;37.20;43.40;;;;;;4994737;28;20454;-60
2021/06/16 07:29:55;;;;;;;4.10;3.70;;;39.30;40.00;;;;;;4982910;28;20436;-60
2021/06/16 07:32:21;;;;;;;6.93;6.43;;;40.80;37.30;;;;;;4991524;28;106495;-60
2021/06/16 07:34:47;;;;;;;7.00;4.53;;;39.40;37.20;;;;;;4974178;28;20231;-60
2021/06/16 07:37:13;;;;;;;3.50;3.27;;;39.00;37.70;;;;;;4999587;28;20289;-60
2021/06/16 07:39:39;;;;;;;5.87;4.33;;;40.10;34.30;;;;;;4990743;28;20191;-60
2021/06/16 07:42:04;;;;;;;3.60;3.30;;;40.30;36.00;;;;;;4997033;28;20190;-60
2021/06/16 07:44:30;;;;;;;7.93;4.03;;;40.10;33.80;;;;;;4990961;28;20827;-59
2021/06/16 07:46:56;;;;;;;3.43;3.10;;;39.30;34.50;;;;;;4993151;28;20207;-60
2021/06/16 07:49:22;;;;;;;4.90;3.40;;;40.50;32.70;;;;;;4995500;28;20298;-60
2021/06/16 07:51:47;;;;;;;4.80;3.30;;;40.30;31.20;;;;;;4986819;28;20183;-60
2021/06/16 07:54:13;;;;;;;3.33;2.87;;;40.50;31.90;;;;;;4997793;28;20837;-60
2021/06/16 07:56:40;;;;;;;3.30;3.10;;;41.00;30.90;;;;;;4991080;28;20688;-60
2021/06/16 07:59:06;;;;;;;3.20;3.00;;;40.70;30.50;;;;;;5008522;28;20191;-59
2021/06/16 08:01:31;;;;;;;3.10;2.90;;;40.60;30.70;;;;;;4995306;28;20441;-59
2021/06/16 08:03:57;;;;;;;3.00;2.80;;;40.40;30.20;;;;;;4989762;28;20470;-59
2021/06/16 08:06:23;;;;;;;3.77;3.00;;;41.00;30.00;;;;;;4991717;28;20219;-59
2021/06/16 08:08:51;;;;;;;3.93;3.63;;;41.40;29.60;;;;;;5001001;28;20187;-59
2021/06/16 08:11:17;;;;;;;3.63;3.30;;;41.70;29.30;;;;;;4998283;28;20191;-59
2021/06/16 08:13:43;;;;;;;6.63;3.50;;;42.00;29.10;;;;;;4990205;28;20494;-59
2021/06/16 08:19:32;;;;;;;4.67;3.23;;;41.30;29.50;;;;;;4990888;28;20222;-59
2021/06/16 08:21:58;;;;;;;3.17;2.87;;;40.90;29.70;;;;;;4988389;28;20447;-59
2021/06/16 08:24:24;;;;;;;3.40;3.10;;;40.50;29.80;;;;;;4989802;28;20473;-58
2021/06/16 08:26:50;;;;;;;3.33;3.13;;;40.80;29.50;;;;;;4990738;28;20200;-59
2021/06/16 08:29:15;;;;;;;3.20;3.00;;;41.40;29.80;;;;;;4992214;28;20438;-60
2021/06/16 08:31:41;;;;;;;5.03;3.10;;;42.40;29.10;;;;;;4991340;28;20649;-61
2021/06/16 08:34:07;;;;;;;5.03;3.83;;;41.20;29.20;;;;;;4990891;28;20203;-58
2021/06/16 08:36:33;;;;;;;3.37;3.17;;;41.30;29.40;;;;;;4989647;28;20779;-58
2021/06/16 08:38:59;;;;;;;3.70;3.40;;;41.40;30.00;;;;;;4989196;28;20194;-57
2021/06/16 08:41:26;;;;;;;3.67;3.37;;;40.50;30.50;;;;;;4999046;28;20198;-60
2021/06/16 08:43:52;;;;;;;6.00;3.87;;;40.60;31.10;;;;;;4989577;28;20471;-58
2021/06/16 08:46:19;;;;;;;4.20;3.80;;;41.60;30.20;;;;;;4988218;28;20824;-58
2021/06/16 08:49:19;;;;;;;4.20;3.50;;;41.80;29.80;;;;;;5000739;28;20227;-58
2021/06/16 08:51:44;;;;;;;4.70;3.53;;;41.80;29.60;;;;;;4984046;28;21169;-59
2021/06/16 08:54:10;;;;;;;4.33;3.93;;;41.90;29.90;;;;;;4999337;28;20452;-58
2021/06/16 08:56:36;;;;;;;6.37;3.87;;;43.40;29.10;;;;;;4987951;28;20313;-58
2021/06/16 08:59:04;;;;;;;4.27;3.50;;;43.30;28.50;;;;;;4981650;28;21100;-60
2021/06/16 09:01:30;;;;;;;3.53;3.33;;;42.40;29.20;;;;;;4988292;28;20443;-60
2021/06/16 09:03:55;;;;;;;3.83;3.50;;;42.50;29.40;;;;;;4987824;28;20473;-60
2021/06/16 09:06:28;;;;;;;3.43;3.23;;;42.70;29.10;;;;;;4998943;28;20203;-60
2021/06/16 09:09:07;;;;;;;3.87;3.47;;;43.20;28.60;;;;;;4996491;28;20191;-60
2021/06/16 09:11:39;;;;;;;5.67;3.00;;;43.50;28.10;;;;;;4994104;28;20448;-61
2021/06/16 09:14:16;;;;;;;4.20;3.40;;;43.40;28.00;;;;;;4998563;28;20972;-61
2021/06/16 09:16:42;;;;;;;3.17;2.90;;;42.70;28.20;;;;;;4986389;28;21124;-61
2021/06/16 09:22:40;;;;;;;3.83;3.53;;;42.90;28.00;;;;;;4982317;28;20533;-59
2021/06/16 09:25:08;;;;;;;3.40;3.20;;;43.30;27.90;;;;;;4993623;28;20454;-60
2021/06/16 09:27:47;;;;;;;3.33;3.03;;;43.60;27.30;;;;;;5003341;28;20919;-60
2021/06/16 09:30:19;;;;;;;3.50;3.20;;;42.50;28.10;;;;;;4993433;28;20442;-59
2021/06/16 09:32:46;;;;;;;3.17;2.97;;;42.20;27.80;;;;;;4988004;28;20462;-60
2021/06/16 09:38:34;;;;;;;3.30;2.87;;;41.40;28.40;;;;;;4980687;28;20421;-60
2021/06/16 09:41:01;;;;;;;3.70;3.30;;;41.30;28.60;;;;;;4988354;28;20835;-60
2021/06/16 09:43:29;;;;;;;4.70;3.27;;;41.60;28.40;;;;;;4986346;28;20692;-59
2021/06/16 09:46:02;;;;;;;3.70;3.37;;;41.80;28.60;;;;;;5002138;28;20974;-60
2021/06/16 09:48:28;;;;;;;3.47;3.20;;;42.00;27.90;;;;;;4988062;28;20461;-60
2021/06/16 09:51:18;;;;;;;3.97;3.20;;;42.00;28.40;;;;;;4989707;28;20450;-60
2021/06/16 09:53:52;;;;;;;3.20;3.00;;;42.40;27.70;;;;;;4989205;28;20260;-59
2021/06/16 09:56:18;;;;;;;3.97;3.53;;;42.70;28.00;;;;;;5003066;28;20438;-60
2021/06/16 09:58:44;;;;;;;3.83;3.53;;;42.70;27.80;;;;;;4990905;28;20520;-59
2021/06/16 10:01:09;;;;;;;5.83;3.90;;;42.40;28.60;;;;;;4992501;28;20270;-58
2021/06/16 10:03:35;;;;;;;4.70;3.47;;;42.50;28.80;;;;;;4989108;28;20243;-59
2021/06/16 10:06:05;;;;;;;5.33;3.40;;;42.90;28.50;;;;;;4987151;28;20234;-59
2021/06/16 10:09:06;;;;;;;3.50;3.20;;;43.00;27.90;;;;;;4986559;28;20211;-61
2021/06/16 10:11:32;;;;;;;4.87;3.40;;;43.50;28.10;;;;;;4985481;28;20887;-60
2021/06/16 10:13:57;;;;;;;3.40;3.20;;;43.30;27.20;;;;;;4984998;28;20533;-58
2021/06/16 10:16:23;;;;;;;3.40;3.20;;;43.30;27.20;;;;;;4974112;28;20224;-59
2021/06/16 10:18:51;;;;;;;3.50;3.20;;;43.50;27.50;;;;;;4978684;28;20633;-59
2021/06/16 10:21:17;;;;;;;3.77;3.47;;;43.60;27.30;;;;;;4993346;28;20202;-59
2021/06/16 10:23:43;;;;;;;4.83;3.13;;;42.80;27.80;;;;;;4976008;28;20470;-59
2021/06/16 10:26:31;;;;;;;3.77;3.30;;;43.30;27.90;;;;;;4984544;28;20812;-58
2021/06/16 10:29:01;;;;;;;4.10;3.30;;;43.80;26.30;;;;;;4985976;28;20986;-59
2021/06/16 10:31:36;;;;;;;3.50;3.23;;;43.50;26.20;;;;;;4993582;28;20476;-59
2021/06/16 10:34:02;;;;;;;3.63;3.40;;;43.70;26.40;;;;;;4988191;28;20477;-59
2021/06/16 10:36:28;;;;;;;4.33;3.43;;;43.80;26.30;;;;;;4994078;28;20504;-59
2021/06/16 10:38:57;;;;;;;3.47;3.27;;;43.90;26.50;;;;;;4998904;28;20482;-59
2021/06/16 10:41:38;;;;;;;3.60;3.30;;;43.70;26.70;;;;;;4990209;28;20434;-59
2021/06/16 10:44:11;;;;;;;3.50;3.30;;;43.60;26.90;;;;;;4993366;28;20501;-58
2021/06/16 10:47:10;;;;;;;4.53;3.70;;;43.50;26.80;;;;;;4992352;28;20521;-60
2021/06/16 10:49:42;;;;;;;4.80;4.40;;;43.40;26.90;;;;;;5001091;28;20457;-60
2021/06/16 10:52:10;;;;;;;4.27;3.90;;;42.80;27.50;;;;;;4993819;28;20513;-61
2021/06/16 10:54:36;;;;;;;3.40;3.10;;;42.70;27.90;;;;;;4997381;28;20453;-59
2021/06/16 10:57:10;;;;;;;7.20;3.70;;;42.70;27.50;;;;;;4998707;28;20474;-59
2021/06/16 10:59:49;;;;;;;4.20;3.77;;;42.20;27.80;;;;;;4996231;28;20903;-59
2021/06/16 11:02:17;;;;;;;4.13;3.73;;;42.20;27.80;;;;;;4993956;28;20449;-62
2021/06/16 11:04:44;;;;;;;3.93;3.63;;;41.90;28.10;;;;;;4994950;28;20469;-62
2021/06/16 11:07:37;;;;;;;5.63;3.60;;;41.70;27.90;;;;;;4995913;28;20856;-62
2021/06/16 11:10:07;;;;;;;3.50;3.30;;;41.50;28.20;;;;;;4994243;28;20905;-62
2021/06/16 11:12:41;;;;;;;3.80;3.50;;;41.10;28.10;;;;;;4995961;28;20434;-62
2021/06/16 11:15:30;;;;;;;3.70;3.40;;;39.80;29.60;;;;;;4994824;28;20447;-62
2021/06/16 11:17:58;;;;;;;4.10;3.80;;;39.20;30.00;;;;;;4992709;28;20544;-61
2021/06/16 11:20:37;;;;;;;3.40;3.20;;;38.90;30.70;;;;;;4993094;28;20474;-62
2021/06/16 11:23:05;;;;;;;3.97;3.67;;;38.70;31.30;;;;;;5000567;28;20832;-61
2021/06/16 11:25:36;;;;;;;3.80;3.60;;;38.30;31.60;;;;;;4986268;28;20446;-62
2021/06/16 11:28:11;;;;;;;4.10;3.80;;;38.00;31.60;;;;;;4992678;28;20462;-61
2021/06/16 11:30:53;;;;;;;3.57;3.33;;;38.10;32.30;;;;;;4997599;28;21109;-62
2021/06/16 11:33:22;;;;;;;4.20;3.90;;;37.60;33.10;;;;;;4992031;28;20886;-62
2021/06/16 11:36:00;;;;;;;3.80;3.60;;;37.20;33.60;;;;;;5000117;28;20460;-61
2021/06/16 11:38:34;;;;;;;3.90;3.70;;;37.00;34.20;;;;;;4987599;28;20485;-62
2021/06/16 11:41:16;;;;;;;3.90;3.60;;;37.00;34.00;;;;;;4988753;28;20446;-62
2021/06/16 11:43:49;;;;;;;4.10;3.80;;;36.90;33.60;;;;;;4992537;28;21004;-62
2021/06/16 11:46:48;;;;;;;3.90;3.70;;;36.90;33.70;;;;;;4993634;28;20447;-61
2021/06/16 11:49:20;;;;;;;4.20;3.87;;;36.40;34.10;;;;;;4981662;28;20442;-62
2021/06/16 11:51:51;;;;;;;4.00;3.73;;;36.00;35.30;;;;;;4992252;28;20443;-64
2021/06/16 11:54:39;;;;;;;5.63;3.70;;;35.70;35.90;;;;;;4997200;28;21014;-60
2021/06/16 11:57:07;;;;;;;4.90;4.40;;;35.00;36.70;;;;;;4991598;28;20438;-62
2021/06/16 11:59:38;;;;;;;3.67;3.47;;;34.90;36.70;;;;;;4991475;28;20197;-61
2021/06/16 12:02:06;;;;;;;4.27;3.87;;;34.80;36.50;;;;;;4984219;28;20469;-61
2021/06/16 12:04:48;;;;;;;4.80;4.50;;;34.60;36.40;;;;;;4990734;28;20478;-60
2021/06/16 12:07:20;;;;;;;5.77;4.40;;;34.30;37.50;;;;;;4989608;28;20970;-59
2021/06/16 12:09:52;;;;;;;3.90;3.60;;;33.90;38.30;;;;;;4986889;28;20580;-61
2021/06/16 12:12:18;;;;;;;4.83;4.00;;;34.00;38.60;;;;;;4989298;28;20533;-61
2021/06/16 12:14:44;;;;;;;4.87;4.40;;;34.00;38.30;;;;;;4988433;28;20586;-61
2021/06/16 12:17:09;;;;;;;4.03;3.70;;;34.00;39.60;;;;;;4996588;28;20585;-61
2021/06/16 12:19:38;;;;;;;4.37;4.07;;;34.00;39.20;;;;;;4990148;28;20238;-59
2021/06/16 12:22:08;;;;;;;4.30;4.00;;;33.80;39.20;;;;;;4990241;28;20188;-60
2021/06/16 12:24:35;;;;;;;4.00;3.80;;;33.70;39.70;;;;;;4986509;28;21074;-60
2021/06/16 12:27:04;;;;;;;4.93;4.30;;;33.60;39.10;;;;;;4983871;28;20457;-60
2021/06/16 12:29:31;;;;;;;4.83;4.10;;;33.30;40.20;;;;;;4994373;28;20434;-60
2021/06/16 12:32:00;;;;;;;4.43;4.13;;;33.10;40.90;;;;;;4996593;28;20930;-60
2021/06/16 12:35:10;;;;;;;4.83;4.30;;;33.10;40.90;;;;;;4995612;28;20473;-60
2021/06/16 12:37:16;;;;;;;4.17;3.80;;;33.30;40.20;;;;;;4996590;28;20990;-60
2021/06/16 12:40:07;;;;;;;9.97;4.60;;;33.30;39.90;;;;;;4992403;28;20545;-60
2021/06/16 12:42:37;;;;;;;6.80;4.10;;;33.30;40.10;;;;;;4988916;28;20492;-60
2021/06/16 12:45:04;;;;;;;4.70;4.30;;;33.50;39.80;;;;;;4994118;28;20442;-60
2021/06/16 12:47:33;;;;;;;4.43;3.90;;;33.50;39.90;;;;;;4993831;28;21073;-62
2021/06/16 12:49:59;;;;;;;3.90;3.60;;;33.40;39.40;;;;;;4988921;28;20495;-61
2021/06/16 12:52:33;;;;;;;4.10;3.80;;;33.30;39.70;;;;;;4992615;28;20970;-62
2021/06/16 12:55:14;;;;;;;4.70;4.27;;;33.20;39.70;;;;;;4991276;28;20179;-61
2021/06/16 12:57:42;;;;;;;4.30;3.87;;;33.00;40.50;;;;;;5004391;28;20439;-62
2021/06/16 13:00:13;;;;;;;3.90;3.67;;;33.20;39.80;;;;;;4994471;28;20450;-61
2021/06/16 13:02:39;;;;;;;4.43;3.97;;;33.20;39.60;;;;;;4998101;28;20438;-61
2021/06/16 13:05:23;;;;;;;4.40;4.10;;;33.10;40.10;;;;;;4993344;28;20503;-59
2021/06/16 13:07:51;;;;;;;4.60;4.20;;;33.10;40.30;;;;;;5008541;28;20202;-60
2021/06/16 13:10:23;;;;;;;4.37;4.07;;;33.00;40.50;;;;;;4992175;28;20546;-59
2021/06/16 13:13:08;;;;;;;4.33;4.03;;;33.00;40.30;;;;;;5003615;28;21067;-61